Terminal Aerodrome Forecast
Issued by NWS

Home | Current Version | Previous Version | Text Only | Print | Product List | Glossary Off
Versions: 1 2 3 4 5 6 7 8 9 10 11 12 13 14 15 16 17 18 19

919
FTUS43 KBIS 280520
TAFDIK
TAF
KDIK 280520Z 2806/2906 05007KT P6SM VCSH OVC080
     FM281700 08011KT P6SM OVC035=

USA.gov is the U.S. government's official web portal to all federal, state and local government web resources and services.